Time;durP1;ratioP1;P1;durP2;ratioP2;P2;SDS_P1;SDS_P2;PMS_P1;PMS_P2;Temp;Humidity;BMP_temperature;BMP_pressure;BME280_temperature;BME280_humidity;BME280_pressure;Samples;Min_cycle;Max_cycle;Signal;HPM_P1;HPM_P2
2024/01/14 00:01:29;;;;;;;40.90;20.45;;;;;;;28.58;69.87;101094.97;5051501;28;65533;-40
2024/01/14 00:04:00;;;;;;;46.97;21.13;;;;;;;28.61;71.08;101111.63;5045921;28;69654;-42
2024/01/14 00:06:31;;;;;;;40.33;19.52;;;;;;;28.58;71.15;101108.47;5042421;28;66711;-42
2024/01/14 00:09:01;;;;;;;27.02;19.40;;;;;;;28.63;70.86;101122.19;5058454;28;69975;-41
2024/01/14 00:11:32;;;;;;;29.17;19.15;;;;;;;28.64;70.91;101118.44;5061851;28;66690;-41
2024/01/14 00:14:03;;;;;;;28.60;18.67;;;;;;;28.68;70.91;101125.13;5060776;28;69792;-41
2024/01/14 00:16:34;;;;;;;36.83;18.75;;;;;;;28.69;70.68;101133.00;5061633;28;66258;-41
2024/01/14 00:19:05;;;;;;;24.50;17.70;;;;;;;28.59;70.86;101115.53;5035157;28;69666;-39
2024/01/14 00:21:36;;;;;;;27.10;18.50;;;;;;;28.73;71.03;101145.09;5061212;28;65534;-40
2024/01/14 00:24:07;;;;;;;33.35;18.20;;;;;;;28.70;70.83;101139.28;5055991;28;70126;-40
2024/01/14 00:26:38;;;;;;;28.20;18.17;;;;;;;28.72;70.88;101145.28;5047357;28;66595;-39
2024/01/14 00:29:09;;;;;;;28.02;18.13;;;;;;;28.78;70.69;101151.75;5030808;28;70015;-39
2024/01/14 00:31:40;;;;;;;35.05;17.30;;;;;;;28.79;70.88;101148.88;5015111;28;66350;-41
2024/01/14 00:34:11;;;;;;;27.55;17.58;;;;;;;28.80;70.85;101161.31;5053058;28;70619;-41
2024/01/14 00:36:42;;;;;;;26.48;17.67;;;;;;;28.82;71.93;101156.56;5051191;28;66561;-40
2024/01/14 00:39:12;;;;;;;34.97;18.50;;;;;;;28.87;72.27;101159.50;5042650;28;69536;-40
2024/01/14 00:41:43;;;;;;;27.30;17.55;;;;;;;28.88;72.08;101169.25;5042976;28;66826;-41
2024/01/14 00:44:13;;;;;;;38.72;17.10;;;;;;;28.91;72.70;101174.25;5046720;28;70427;-40
2024/01/14 00:46:44;;;;;;;42.90;19.90;;;;;;;28.82;69.42;101175.47;5050923;28;65572;-41
2024/01/14 00:49:14;;;;;;;39.88;22.70;;;;;;;28.74;68.61;101181.84;5052160;28;70031;-40
2024/01/14 00:51:46;;;;;;;43.10;23.45;;;;;;;28.69;69.16;101187.00;5051748;28;65874;-40
2024/01/14 00:54:16;;;;;;;48.33;22.63;;;;;;;28.64;68.82;101188.63;5045588;28;71014;-39
2024/01/14 00:56:47;;;;;;;50.08;23.92;;;;;;;28.64;68.51;101194.03;5057140;28;67288;-41
2024/01/14 00:59:18;;;;;;;52.60;25.00;;;;;;;28.56;70.22;101178.03;5043880;28;69743;-41
2024/01/14 01:01:49;;;;;;;48.50;24.08;;;;;;;28.72;70.98;101212.78;5028524;28;66800;-41
2024/01/14 01:04:19;;;;;;;44.40;24.35;;;;;;;28.70;71.55;101214.84;5034016;28;70911;-41
2024/01/14 01:06:50;;;;;;;51.15;25.35;;;;;;;28.77;71.79;101212.19;5038940;28;66541;-41
2024/01/14 01:09:22;;;;;;;55.97;25.77;;;;;;;28.81;72.20;101226.97;5039771;28;70103;-41
2024/01/14 01:11:52;;;;;;;62.35;26.35;;;;;;;28.74;72.11;101210.72;5033528;28;66755;-41
2024/01/14 01:14:23;;;;;;;47.88;26.05;;;;;;;28.84;72.36;101222.00;5027272;28;69610;-41
2024/01/14 01:16:53;;;;;;;45.67;24.70;;;;;;;28.86;72.71;101225.34;5053895;28;65872;-41
2024/01/14 01:19:24;;;;;;;41.72;24.92;;;;;;;28.88;72.70;101234.06;5050887;28;70649;-41
2024/01/14 01:21:55;;;;;;;58.75;24.85;;;;;;;28.91;72.40;101236.38;5053818;28;66863;-41
2024/01/14 01:24:25;;;;;;;52.53;24.73;;;;;;;28.84;71.93;101221.19;5052397;28;70529;-41
2024/01/14 01:26:56;;;;;;;44.35;25.40;;;;;;;28.94;71.84;101238.66;5040211;28;65650;-43
2024/01/14 01:29:27;;;;;;;44.92;25.67;;;;;;;28.96;71.99;101242.00;5042689;28;70103;-42
2024/01/14 01:31:57;;;;;;;48.22;26.77;;;;;;;28.94;72.70;101227.88;5058555;28;66391;-41
2024/01/14 01:34:37;;;;;;;45.28;26.30;;;;;;;28.98;72.05;101243.69;5048287;28;69826;-42
2024/01/14 01:37:08;;;;;;;45.67;26.10;;;;;;;29.00;71.91;101241.59;5072894;28;66294;-41
2024/01/14 01:39:39;;;;;;;48.38;26.35;;;;;;;29.00;72.36;101247.00;5061148;28;70110;-42
2024/01/14 01:42:11;;;;;;;48.67;26.88;;;;;;;29.04;72.44;101253.72;5053468;28;66106;-42
2024/01/14 01:44:42;;;;;;;49.17;26.08;;;;;;;29.05;72.43;101245.41;5035886;28;69819;-41
2024/01/14 01:47:15;;;;;;;47.10;26.75;;;;;;;29.07;72.06;101253.31;5056967;28;67042;-40
2024/01/14 01:49:46;;;;;;;43.88;25.65;;;;;;;29.07;71.60;101247.94;5038171;28;70140;-41
2024/01/14 01:52:18;;;;;;;45.05;25.48;;;;;;;29.12;72.13;101256.28;5043901;28;65153;-41
2024/01/14 01:54:50;;;;;;;43.13;24.83;;;;;;;29.04;71.94;101240.22;5048572;28;69862;-42
2024/01/14 01:57:23;;;;;;;45.35;27.88;;;;;;;29.12;70.53;101258.97;5057169;28;65848;-41
2024/01/14 01:59:54;;;;;;;67.75;33.03;;;;;;;28.99;68.51;101256.16;5039214;28;70314;-42
2024/01/14 02:02:26;;;;;;;62.38;32.42;;;;;;;28.84;67.96;101237.38;5037511;28;64982;-40
2024/01/14 02:04:57;;;;;;;63.55;31.83;;;;;;;28.85;68.61;101249.84;5054077;28;69714;-40
2024/01/14 02:07:27;;;;;;;50.17;30.90;;;;;;;28.94;69.37;101262.13;5041531;28;65299;-40
2024/01/14 02:09:58;;;;;;;62.83;32.83;;;;;;;28.91;69.94;101246.34;5055701;28;68970;-42
2024/01/14 02:12:29;;;;;;;50.05;28.05;;;;;;;29.01;68.77;101254.09;5068289;28;66573;-42
2024/01/14 02:14:59;;;;;;;42.45;25.25;;;;;;;29.01;68.79;101254.09;5056629;28;70292;-43
2024/01/14 02:17:30;;;;;;;41.88;25.13;;;;;;;29.02;68.82;101261.97;5062329;28;66562;-43
2024/01/14 02:20:01;;;;;;;35.90;24.33;;;;;;;29.07;68.72;101259.56;5061068;28;70270;-42
2024/01/14 02:22:35;;;;;;;32.95;23.67;;;;;;;29.03;68.78;101246.59;5037998;28;66676;-43
2024/01/14 02:25:07;;;;;;;36.60;24.10;;;;;;;29.15;68.34;101253.16;5040212;28;70104;-42
2024/01/14 02:27:38;;;;;;;31.75;24.08;;;;;;;29.17;68.42;101260.03;5037931;28;66631;-42
2024/01/14 02:30:09;;;;;;;36.85;24.48;;;;;;;29.19;68.85;101249.00;5042505;28;69921;-42
2024/01/14 02:32:40;;;;;;;30.45;23.45;;;;;;;29.25;68.97;101259.03;5042737;28;66078;-42
2024/01/14 02:35:11;;;;;;;34.47;24.25;;;;;;;29.24;68.66;101243.03;5033102;28;69152;-43
2024/01/14 02:37:43;;;;;;;37.47;24.75;;;;;;;29.25;68.62;101233.88;5036445;28;66887;-42
2024/01/14 02:40:16;;;;;;;31.83;23.92;;;;;;;29.29;68.62;101235.97;5040418;28;70032;-50
2024/01/14 02:42:47;;;;;;;31.90;24.13;;;;;;;29.38;68.85;101245.56;5030176;28;66769;-42
2024/01/14 02:45:19;;;;;;;32.03;23.48;;;;;;;29.33;68.78;101231.81;5020749;28;69152;-42
2024/01/14 02:47:49;;;;;;;42.30;25.20;;;;;;;29.36;68.90;101231.47;5054165;28;64193;-42
2024/01/14 02:50:20;;;;;;;30.05;23.75;;;;;;;29.40;68.36;101227.31;5053486;28;70474;-42
2024/01/14 02:52:50;;;;;;;30.17;22.98;;;;;;;29.48;68.82;101238.97;5060479;28;65393;-42
2024/01/14 02:55:21;;;;;;;34.58;23.77;;;;;;;29.50;68.22;101223.38;5061107;28;69956;-43
2024/01/14 02:57:52;;;;;;;30.90;23.63;;;;;;;29.50;68.60;101231.47;5036916;28;66609;-43
2024/01/14 03:00:23;;;;;;;35.90;24.23;;;;;;;29.55;68.74;101229.00;5060022;28;70620;-43
2024/01/14 03:02:53;;;;;;;35.78;24.40;;;;;;;29.56;68.47;101231.53;5061135;28;65365;-43
2024/01/14 03:05:24;;;;;;;38.25;24.83;;;;;;;29.58;68.70;101225.91;5060797;28;71212;-43
2024/01/14 03:07:54;;;;;;;27.27;23.00;;;;;;;29.61;68.83;101228.19;5061354;28;66325;-42
2024/01/14 03:10:25;;;;;;;31.83;23.88;;;;;;;29.60;68.83;101221.13;5059543;28;71030;-42
2024/01/14 03:12:56;;;;;;;33.40;23.98;;;;;;;29.61;68.77;101220.06;5076508;28;66253;-43
2024/01/14 03:15:26;;;;;;;30.33;23.75;;;;;;;29.61;68.51;101209.25;5038762;28;70166;-43
2024/01/14 03:17:57;;;;;;;31.67;23.75;;;;;;;29.68;68.77;101209.34;5052557;28;66079;-43
2024/01/14 03:20:28;;;;;;;31.90;24.13;;;;;;;29.69;68.73;101203.69;5035494;28;69443;-43
2024/01/14 03:22:58;;;;;;;32.55;24.13;;;;;;;29.71;68.78;101196.22;5076455;28;65835;-42
2024/01/14 03:25:29;;;;;;;34.50;23.98;;;;;;;29.74;68.40;101203.09;5057603;28;70102;-46
2024/01/14 03:28:00;;;;;;;28.63;22.80;;;;;;;29.75;68.76;101208.28;5057813;28;66478;-43
2024/01/14 03:30:30;;;;;;;28.48;23.08;;;;;;;29.77;68.67;101200.81;5049727;28;70451;-43
2024/01/14 03:33:01;;;;;;;29.35;23.58;;;;;;;29.69;68.25;101171.25;5054650;28;66208;-42
2024/01/14 03:35:32;;;;;;;27.40;22.50;;;;;;;29.78;68.99;101191.69;5040114;28;70060;-43
2024/01/14 03:38:03;;;;;;;29.75;22.95;;;;;;;29.81;68.35;101201.22;5041460;28;66826;-43
2024/01/14 03:40:34;;;;;;;29.73;23.40;;;;;;;29.83;68.95;101189.16;5036094;28;69448;-44
2024/01/14 03:43:06;;;;;;;30.02;23.40;;;;;;;29.86;68.93;101187.09;5051243;28;65954;-44
2024/01/14 03:45:37;;;;;;;30.83;22.75;;;;;;;29.88;68.53;101185.03;5055482;28;69191;-43
2024/01/14 03:48:08;;;;;;;31.42;22.85;;;;;;;29.86;68.28;101178.97;5038920;28;66365;-44
2024/01/14 03:50:39;;;;;;;27.48;22.00;;;;;;;29.94;68.33;101189.59;5038592;28;69327;-42
2024/01/14 03:53:10;;;;;;;31.63;23.80;;;;;;;29.95;69.10;101181.28;5047209;28;65914;-43
2024/01/14 03:55:42;;;;;;;39.03;25.27;;;;;;;29.94;69.45;101178.78;5038742;28;69872;-43
2024/01/14 03:58:14;;;;;;;39.65;26.13;;;;;;;29.99;69.31;101176.28;5040531;28;66186;-44
2024/01/14 04:00:45;;;;;;;36.55;25.58;;;;;;;30.00;69.67;101180.66;5039587;28;69939;-43
2024/01/14 04:03:17;;;;;;;;;;;;;;;29.79;70.46;101170.88;5043720;28;65999;-43
2024/01/14 04:05:47;;;;;;;29.23;22.55;;;;;;;29.97;70.02;101168.38;5059802;28;68546;-42
2024/01/14 04:08:19;;;;;;;38.85;25.27;;;;;;;30.08;69.57;101175.03;5043642;28;65793;-43
2024/01/14 04:10:50;;;;;;;36.92;25.50;;;;;;;30.12;69.67;101168.19;5037808;28;70916;-43
2024/01/14 04:13:20;;;;;;;38.70;25.95;;;;;;;30.06;70.02;101155.47;5039890;28;67278;-43
2024/01/14 04:15:51;;;;;;;43.90;26.55;;;;;;;30.04;71.24;101141.34;5042186;28;70129;-42
2024/01/14 04:18:21;;;;;;;45.97;25.85;;;;;;;30.21;69.79;101158.81;5043873;28;67090;-42
2024/01/14 04:20:52;;;;;;;43.50;27.80;;;;;;;30.16;71.24;101149.66;5043000;28;71141;-43
2024/01/14 04:23:23;;;;;;;53.20;31.52;;;;;;;30.25;70.87;101160.06;5031307;28;65376;-42
2024/01/14 04:25:53;;;;;;;60.22;38.00;;;;;;;30.31;69.63;101157.56;5037618;28;69068;-50
2024/01/14 04:28:25;;;;;;;79.65;46.38;;;;;;;30.26;71.91;101150.94;5034602;28;66236;-43
2024/01/14 04:30:56;;;;;;;74.28;44.25;;;;;;;30.33;70.19;101136.56;5025653;28;69656;-42
2024/01/14 04:33:26;;;;;;;75.87;44.73;;;;;;;30.35;69.76;101138.00;5044454;28;66322;-43
2024/01/14 04:35:57;;;;;;;79.45;44.55;;;;;;;30.31;71.01;101125.09;5045294;28;69571;-43
2024/01/14 04:38:27;;;;;;;79.55;44.10;;;;;;;30.42;70.00;101129.88;5042429;28;66705;-44
2024/01/14 04:40:58;;;;;;;71.53;41.17;;;;;;;30.46;69.94;101139.25;5029090;28;70755;-45
2024/01/14 04:43:29;;;;;;;68.15;38.47;;;;;;;30.43;69.84;101115.31;5035997;28;65506;-47
2024/01/14 04:45:59;;;;;;;77.70;41.57;;;;;;;30.44;70.65;101125.09;5033669;28;70127;-43
2024/01/14 04:48:32;;;;;;;67.97;40.05;;;;;;;30.47;70.38;101124.66;5034446;28;64716;-42
2024/01/14 04:51:03;;;;;;;64.05;38.92;;;;;;;30.45;69.94;101116.75;5034914;28;70113;-42
2024/01/14 04:53:33;;;;;;;61.28;37.47;;;;;;;30.50;71.09;101121.53;5050161;28;66624;-41
2024/01/14 04:56:09;;;;;;;62.90;38.55;;;;;;;30.24;70.53;101066.41;5036911;28;70210;-43
2024/01/14 04:58:41;;;;;;;53.78;34.08;;;;;;;30.58;70.23;101105.06;5051194;28;66517;-43
2024/01/14 05:01:11;;;;;;;59.63;38.25;;;;;;;30.49;70.03;101090.91;5057298;28;69187;-42
2024/01/14 05:03:43;;;;;;;54.10;34.05;;;;;;;30.62;69.85;101092.75;5061105;28;65847;-42
2024/01/14 05:06:14;;;;;;;53.60;33.63;;;;;;;30.65;69.37;101094.22;5048184;28;70128;-43
2024/01/14 05:08:44;;;;;;;56.27;34.27;;;;;;;30.57;69.49;101076.31;5061401;28;65741;-42
2024/01/14 05:11:15;;;;;;;47.13;32.47;;;;;;;30.63;68.95;101078.16;5062440;28;69971;-43
2024/01/14 05:13:45;;;;;;;46.83;32.70;;;;;;;30.67;69.08;101073.16;5035477;28;65575;-42
2024/01/14 05:16:16;;;;;;;49.85;31.67;;;;;;;30.65;68.88;101061.72;5048722;28;70380;-42
2024/01/14 05:18:46;;;;;;;48.33;31.40;;;;;;;30.68;69.21;101062.13;5061996;28;65601;-43
2024/01/14 05:21:17;;;;;;;47.58;31.65;;;;;;;30.69;68.97;101068.34;5075487;28;69521;-43
2024/01/14 05:23:47;;;;;;;47.35;30.42;;;;;;;30.68;69.09;101056.72;5056381;28;66330;-43
2024/01/14 05:26:18;;;;;;;44.33;29.35;;;;;;;30.78;68.28;101050.00;5043499;28;70506;-42
2024/01/14 05:28:48;;;;;;;41.80;29.40;;;;;;;30.73;69.11;101054.19;5021098;28;65919;-43
2024/01/14 05:31:19;;;;;;;44.72;30.15;;;;;;;30.72;68.57;101040.84;5046784;28;69913;-44
2024/01/14 05:33:50;;;;;;;40.13;29.83;;;;;;;30.80;68.49;101047.94;5045831;28;66167;-42
2024/01/14 05:36:21;;;;;;;38.95;28.95;;;;;;;30.81;68.73;101049.59;5043695;28;69456;-43
2024/01/14 05:38:51;;;;;;;39.40;28.20;;;;;;;30.81;68.36;101044.16;5025129;28;66350;-42
2024/01/14 05:41:22;;;;;;;47.35;30.17;;;;;;;30.77;68.51;101043.75;5042998;28;70273;-42
2024/01/14 05:43:53;;;;;;;43.38;28.83;;;;;;;30.85;68.46;101035.41;5035836;28;66755;-43
2024/01/14 05:46:23;;;;;;;46.42;30.05;;;;;;;30.80;68.79;101023.56;5036084;28;69706;-42
2024/01/14 05:48:54;;;;;;;46.13;28.90;;;;;;;30.83;68.40;101015.00;5044006;28;65626;-44
2024/01/14 05:51:25;;;;;;;44.75;30.83;;;;;;;30.85;68.34;101026.47;5077564;28;70819;-43
2024/01/14 05:53:56;;;;;;;42.40;29.13;;;;;;;30.83;68.47;101006.88;5069573;28;66996;-42
2024/01/14 05:56:27;;;;;;;41.92;28.67;;;;;;;30.83;68.50;101004.16;5055034;28;70385;-42
2024/01/14 05:59:00;;;;;;;46.10;29.58;;;;;;;30.82;68.78;100991.69;5053432;28;65315;-42
2024/01/14 06:01:31;;;;;;;45.50;28.65;;;;;;;30.79;67.50;100982.09;5057826;28;69678;-42
2024/01/14 06:04:01;;;;;;;48.72;27.88;;;;;;;30.79;65.35;100983.97;5067413;28;66461;-44
2024/01/14 06:06:32;;;;;;;42.17;27.98;;;;;;;30.58;62.81;100979.69;5043022;28;70353;-44
2024/01/14 06:09:03;;;;;;;50.55;26.42;;;;;;;30.41;61.42;100973.94;5062435;28;66236;-39
2024/01/14 06:11:33;;;;;;;55.38;28.48;;;;;;;30.21;60.26;100964.00;5059007;28;69652;-41
2024/01/14 06:14:04;;;;;;;50.03;26.52;;;;;;;30.01;58.78;100947.84;5061929;28;65466;-41
2024/01/14 06:16:39;;;;;;;49.03;25.75;;;;;;;29.92;58.22;100965.34;5036392;28;70451;-42
2024/01/14 06:19:09;;;;;;;44.55;26.40;;;;;;;29.79;57.99;100944.56;5059356;28;66578;-41
2024/01/14 06:21:42;;;;;;;47.08;25.52;;;;;;;29.57;57.40;100938.53;5062050;28;70453;-40
2024/01/14 06:24:15;;;;;;;52.10;26.38;;;;;;;29.54;56.75;100944.38;5036468;28;66367;-43
2024/01/14 06:26:46;;;;;;;42.17;23.90;;;;;;;29.40;56.51;100942.72;5047279;28;70275;-40
2024/01/14 06:29:16;;;;;;;40.38;24.27;;;;;;;29.22;56.28;100921.72;5061266;28;66215;-41
2024/01/14 06:31:47;;;;;;;42.03;24.17;;;;;;;28.83;55.65;100858.53;5047436;28;69227;-41
2024/01/14 06:34:17;;;;;;;34.90;23.60;;;;;;;29.25;55.65;100924.00;5041730;28;66014;-40
2024/01/14 06:36:48;;;;;;;33.78;23.67;;;;;;;29.17;54.92;100908.84;5021141;28;70099;-40
2024/01/14 06:39:19;;;;;;;38.10;23.98;;;;;;;29.13;55.15;100909.47;5036376;28;65884;-41
2024/01/14 06:41:50;;;;;;;35.35;23.38;;;;;;;29.06;54.52;100900.53;5044304;28;70662;-40
2024/01/14 06:44:21;;;;;;;29.97;22.50;;;;;;;28.98;54.08;100906.13;5041581;28;66273;-42
2024/01/14 06:46:51;;;;;;;32.47;23.25;;;;;;;28.96;54.52;100909.84;5040273;28;70615;-40
2024/01/14 06:49:22;;;;;;;27.73;22.15;;;;;;;28.76;54.12;100879.31;5049538;28;66257;-42
2024/01/14 06:51:53;;;;;;;36.65;23.42;;;;;;;28.91;53.81;100909.63;5060812;28;70199;-42
2024/01/14 06:54:23;;;;;;;38.75;23.52;;;;;;;28.90;53.88;100905.28;5059740;28;67056;-39
2024/01/14 06:56:54;;;;;;;36.20;22.83;;;;;;;28.86;54.09;100895.94;5047470;28;70094;-39
2024/01/14 06:59:26;;;;;;;31.75;22.05;;;;;;;28.80;53.82;100891.34;5059879;28;65264;-41
2024/01/14 07:01:56;;;;;;;34.22;21.80;;;;;;;28.79;53.47;100889.69;5025671;28;70782;-40
2024/01/14 07:04:27;;;;;;;27.10;20.65;;;;;;;28.82;54.76;100889.28;5040849;28;66465;-40
2024/01/14 07:06:57;;;;;;;29.67;22.95;;;;;;;28.76;53.49;100890.09;5060547;28;69759;-40
2024/01/14 07:09:28;;;;;;;30.77;22.00;;;;;;;28.70;53.89;100880.97;5045277;28;66081;-41
2024/01/14 07:11:59;;;;;;;31.83;22.20;;;;;;;28.76;53.20;100881.19;5048209;28;69302;-42
2024/01/14 07:14:29;;;;;;;32.58;21.50;;;;;;;28.72;54.89;100862.69;5047923;28;66754;-41
2024/01/14 07:17:00;;;;;;;26.92;20.38;;;;;;;28.82;55.50;100878.47;5058699;28;70568;-38
2024/01/14 07:19:32;;;;;;;27.83;21.05;;;;;;;28.81;54.98;100866.03;5054439;28;66701;-40
2024/01/14 07:22:04;;;;;;;27.77;21.00;;;;;;;28.77;53.32;100859.34;5026406;28;70125;-40
2024/01/14 07:24:35;;;;;;;34.08;21.05;;;;;;;28.80;54.08;100869.75;5057936;28;67223;-39
2024/01/14 07:27:05;;;;;;;31.45;22.08;;;;;;;28.86;53.22;100868.94;5044712;28;68994;-40
2024/01/14 07:29:36;;;;;;;35.85;21.02;;;;;;;28.89;52.81;100868.53;5042418;28;66205;-41
2024/01/14 07:32:07;;;;;;;34.03;21.30;;;;;;;28.88;53.60;100861.44;5053169;28;70466;-41
2024/01/14 07:34:38;;;;;;;30.88;21.08;;;;;;;28.89;53.51;100855.03;5047729;28;66714;-40
2024/01/14 07:37:09;;;;;;;31.15;21.80;;;;;;;28.83;52.25;100858.53;5045789;28;70217;-40
2024/01/14 07:39:39;;;;;;;26.10;20.90;;;;;;;28.85;52.44;100855.63;5061689;28;66455;-40
2024/01/14 07:42:10;;;;;;;24.48;19.98;;;;;;;28.83;52.34;100858.53;5045049;28;69631;-41
2024/01/14 07:44:41;;;;;;;28.03;20.20;;;;;;;28.71;52.42;100839.41;5034185;28;65082;-40
2024/01/14 07:47:11;;;;;;;24.90;19.70;;;;;;;28.71;53.10;100849.38;5059457;28;69922;-40
2024/01/14 07:49:48;;;;;;;24.50;19.95;;;;;;;28.80;51.36;100863.50;5060992;28;66440;-40
2024/01/14 07:52:19;;;;;;;25.80;19.45;;;;;;;28.80;52.18;100858.13;5032888;28;69762;-40
2024/01/14 07:54:49;;;;;;;26.23;19.80;;;;;;;28.74;51.83;100854.38;5059383;28;65660;-40
2024/01/14 07:57:20;;;;;;;22.95;19.38;;;;;;;28.77;52.35;100859.34;5049331;28;70243;-40
2024/01/14 07:59:50;;;;;;;30.92;20.17;;;;;;;28.74;51.32;100860.59;5073786;28;66682;-41
2024/01/14 08:02:21;;;;;;;23.13;19.90;;;;;;;28.78;52.18;100858.34;5057025;28;69758;-41
2024/01/14 08:04:52;;;;;;;23.45;19.65;;;;;;;28.75;51.22;100866.81;5045304;28;65416;-41
2024/01/14 08:07:22;;;;;;;25.23;19.83;;;;;;;28.63;51.57;100846.91;5048793;28;70368;-41
2024/01/14 08:09:53;;;;;;;23.80;18.83;;;;;;;28.68;51.75;100855.22;5053855;28;66542;-41
2024/01/14 08:12:24;;;;;;;26.85;19.27;;;;;;;28.71;50.75;100868.28;5052913;28;70673;-45
2024/01/14 08:14:54;;;;;;;21.38;19.08;;;;;;;28.71;51.43;100857.50;5074441;28;65747;-41
2024/01/14 08:17:26;;;;;;;25.63;19.50;;;;;;;28.67;51.33;100859.78;5058626;28;70536;-40
2024/01/14 08:19:57;;;;;;;25.92;18.83;;;;;;;28.63;51.42;100853.13;5040397;28;65521;-41
2024/01/14 08:22:27;;;;;;;26.33;19.90;;;;;;;28.66;50.86;100854.56;5042193;28;69804;-40
2024/01/14 08:24:58;;;;;;;22.58;18.65;;;;;;;28.66;51.10;100857.28;5051661;28;66508;-40
2024/01/14 08:27:30;;;;;;;25.98;17.95;;;;;;;28.31;51.18;100799.91;5065140;28;70086;-41
2024/01/14 08:30:01;;;;;;;30.13;19.77;;;;;;;28.62;51.13;100858.75;5059408;28;65629;-43
2024/01/14 08:32:32;;;;;;;22.53;19.03;;;;;;;28.63;51.34;100852.28;5044947;28;69861;-41
2024/01/14 08:35:02;;;;;;;24.50;18.73;;;;;;;28.62;50.69;100861.44;5073446;28;66241;-41
2024/01/14 08:37:33;;;;;;;23.27;18.80;;;;;;;28.58;50.75;100849.38;5069498;28;70322;-40
2024/01/14 08:40:04;;;;;;;21.00;18.85;;;;;;;28.65;52.52;100861.03;5040513;28;66048;-41
2024/01/14 08:42:35;;;;;;;28.95;19.65;;;;;;;28.75;53.92;100864.13;5043405;28;70014;-41
2024/01/14 08:45:05;;;;;;;19.73;17.63;;;;;;;28.88;54.01;100866.00;5074512;28;65100;-40
2024/01/14 08:47:36;;;;;;;26.63;17.83;;;;;;;29.02;54.67;100867.69;5040450;28;70313;-40
2024/01/14 08:50:11;;;;;;;22.23;18.15;;;;;;;29.16;54.66;100884.75;5038194;28;65837;-40
2024/01/14 08:52:42;;;;;;;22.52;18.13;;;;;;;29.28;55.18;100866.88;5039840;28;70586;-41
2024/01/14 08:55:13;;;;;;;31.80;18.23;;;;;;;29.27;55.50;100846.28;5035600;28;66510;-41
2024/01/14 08:57:43;;;;;;;20.67;18.57;;;;;;;29.54;55.58;100870.56;5031720;28;69939;-41
2024/01/14 09:00:15;;;;;;;31.98;18.45;;;;;;;29.63;55.68;100869.31;5040720;28;65293;-41
2024/01/14 09:02:46;;;;;;;28.52;20.02;;;;;;;29.75;56.40;100870.31;5054535;28;70900;-41
2024/01/14 09:05:17;;;;;;;26.25;19.33;;;;;;;29.87;56.68;100869.69;5046676;28;65492;-42
2024/01/14 09:07:48;;;;;;;26.02;20.25;;;;;;;29.92;57.03;100861.72;5056852;28;70133;-42
2024/01/14 09:10:19;;;;;;;28.38;20.27;;;;;;;30.05;57.03;100872.50;5049095;28;64507;-42
2024/01/14 09:12:50;;;;;;;39.53;25.10;;;;;;;30.11;62.43;100870.81;5060243;28;70050;-42
2024/01/14 09:15:20;;;;;;;44.42;29.05;;;;;;;30.21;64.74;100877.41;5055171;28;66027;-41
2024/01/14 09:17:51;;;;;;;41.65;27.35;;;;;;;30.28;65.04;100883.66;5033764;28;70524;-41
2024/01/14 09:20:22;;;;;;;52.22;28.63;;;;;;;30.30;65.97;100879.91;5043228;28;67094;-41
2024/01/14 09:22:52;;;;;;;48.92;28.75;;;;;;;30.36;66.69;100884.44;5056689;28;69754;-42
2024/01/14 09:25:23;;;;;;;50.55;30.58;;;;;;;30.34;65.94;100881.13;5056193;28;65487;-42
2024/01/14 09:27:53;;;;;;;52.35;31.20;;;;;;;30.44;66.74;100892.31;5053100;28;69435;-42
2024/01/14 09:30:24;;;;;;;43.33;29.88;;;;;;;30.43;66.57;100882.53;5031432;28;66202;-43
2024/01/14 09:33:00;;;;;;;51.45;31.83;;;;;;;30.53;67.28;100895.59;5047440;28;70590;-42
2024/01/14 09:35:31;;;;;;;46.25;31.08;;;;;;;30.57;67.14;100894.94;5051698;28;64907;-41
2024/01/14 09:38:02;;;;;;;57.42;33.30;;;;;;;30.51;67.12;100887.69;5030740;28;70421;-42
2024/01/14 09:40:33;;;;;;;42.08;30.80;;;;;;;30.64;66.87;100903.84;5038138;28;65955;-42
2024/01/14 09:43:06;;;;;;;42.30;29.40;;;;;;;30.64;67.50;100898.41;5056939;28;69321;-41
2024/01/14 09:45:40;;;;;;;45.75;31.73;;;;;;;30.55;67.13;100878.09;5041362;28;66275;-37
2024/01/14 09:48:18;;;;;;;49.40;34.55;;;;;;;30.73;67.19;100907.13;5039814;28;70791;-41
2024/01/14 09:50:51;;;;;;;66.80;35.90;;;;;;;30.79;66.18;100917.09;5043673;28;66449;-39
2024/01/14 09:53:23;;;;;;;57.83;36.33;;;;;;;30.79;66.49;100910.84;5041603;28;69669;-40
2024/01/14 09:55:55;;;;;;;59.38;36.95;;;;;;;30.84;67.23;100919.16;5043952;28;65956;-40
2024/01/14 09:58:26;;;;;;;60.15;37.13;;;;;;;30.88;67.15;100914.97;5059983;28;69459;-42
2024/01/14 10:01:04;;;;;;;53.25;36.88;;;;;;;30.86;67.32;100907.06;5043316;28;65854;-40
2024/01/14 10:03:35;;;;;;;54.67;35.40;;;;;;;30.90;66.80;100908.28;5055563;28;69504;-41
2024/01/14 10:06:07;;;;;;;52.90;36.50;;;;;;;30.91;66.98;100919.94;5021497;28;64475;-40
2024/01/14 10:08:38;;;;;;;52.75;37.15;;;;;;;30.89;66.83;100908.50;5040582;28;69878;-39
2024/01/14 10:11:08;;;;;;;53.65;37.15;;;;;;;30.96;67.72;100920.13;5040633;28;66024;-41
2024/01/14 10:13:40;;;;;;;58.80;36.40;;;;;;;30.97;68.13;100921.75;5053811;28;69780;-41
2024/01/14 10:16:14;;;;;;;55.30;36.17;;;;;;;30.97;67.95;100923.66;5050601;28;66570;-39
2024/01/14 10:19:06;;;;;;;66.90;36.78;;;;;;;30.96;68.23;100922.84;5046738;28;70716;-40
2024/01/14 10:21:37;;;;;;;58.47;35.85;;;;;;;30.95;68.01;100918.44;5062264;28;65021;-42
2024/01/14 10:24:08;;;;;;;58.40;35.22;;;;;;;30.96;67.81;100917.41;5078017;28;69326;-39
2024/01/14 10:26:40;;;;;;;59.03;36.08;;;;;;;31.06;67.49;100933.16;5048413;28;65267;-43
2024/01/14 10:29:11;;;;;;;63.42;36.90;;;;;;;31.01;67.58;100923.00;5062955;28;69394;-38
2024/01/14 10:31:44;;;;;;;54.40;33.50;;;;;;;30.65;65.94;100856.78;5050977;28;65542;-38
2024/01/14 10:34:19;;;;;;;49.50;30.27;;;;;;;31.17;66.02;100937.84;5060888;28;70646;-37
2024/01/14 10:37:01;;;;;;;37.83;28.85;;;;;;;30.87;67.35;100888.91;5030937;28;66569;-38
2024/01/14 10:39:33;;;;;;;40.80;29.83;;;;;;;31.23;68.24;100949.69;5041785;28;70073;-39
2024/01/14 10:42:05;;;;;;;61.72;27.75;;;;;;;31.27;66.14;100945.50;5058550;28;66481;-40
2024/01/14 10:44:36;;;;;;;46.38;27.17;;;;;;;31.36;65.83;100955.03;5046965;28;69850;-39
2024/01/14 10:47:10;;;;;;;46.42;27.58;;;;;;;31.39;65.38;100943.75;5034871;28;65757;-40
2024/01/14 10:49:43;;;;;;;41.72;29.85;;;;;;;31.41;65.22;100947.09;5052128;28;70199;-38
2024/01/14 10:52:17;;;;;;;40.92;27.25;;;;;;;31.46;65.30;100954.56;5060639;28;66399;-41
2024/01/14 10:54:50;;;;;;;37.60;25.90;;;;;;;31.46;65.04;100958.09;5042731;28;69787;-40
2024/01/14 10:57:37;;;;;;;43.00;24.90;;;;;;;31.47;65.30;100957.03;5041225;28;66259;-41
2024/01/14 11:00:09;;;;;;;27.35;22.38;;;;;;;31.51;64.88;100963.69;5035562;28;70749;-40
2024/01/14 11:02:40;;;;;;;28.98;21.02;;;;;;;31.50;64.66;100959.28;5035897;28;65702;-41
2024/01/14 11:05:12;;;;;;;29.50;20.30;;;;;;;31.49;65.05;100971.19;5047257;28;70438;-40
2024/01/14 11:07:43;;;;;;;21.58;19.30;;;;;;;31.54;64.75;100973.25;5037159;28;65876;-41
2024/01/14 11:10:14;;;;;;;23.73;18.00;;;;;;;31.53;64.70;100966.97;5037399;28;69062;-41
2024/01/14 11:13:08;;;;;;;23.42;18.30;;;;;;;31.56;65.21;100977.38;5024863;28;65333;-40
2024/01/14 11:16:28;;;;;;;21.48;17.90;;;;;;;31.52;66.06;100976.16;5032519;28;70034;-41
2024/01/14 11:19:06;;;;;;;19.17;17.00;;;;;;;31.56;65.94;100977.38;4996757;28;65181;-40
2024/01/14 11:22:19;;;;;;;23.23;16.80;;;;;;;31.48;66.61;100980.41;5000798;28;70359;-42
2024/01/14 11:25:04;;;;;;;17.75;15.88;;;;;;;31.58;65.36;100996.97;5038383;28;66262;-41
2024/01/14 11:27:37;;;;;;;19.63;14.98;;;;;;;31.60;65.38;100996.75;5043204;28;42988;-41
2024/01/14 11:30:16;;;;;;;15.30;14.00;;;;;;;31.56;65.82;100985.50;5040882;28;64453;-41